Terminal Aerodrome Forecast
Issued by NWS Green Bay, WI

Home | Current Version | Previous Version | Graphics & Text | Print | Product List | Glossary On
Versions: 1 2 3 4 5 6 7 8 9 10 11 12 13 14 15 16 17 18
000
FTUS43 KGRB 171733
TAFGRB
TAF
KGRB 171733Z 1718/1818 23013G19KT 4SM -SN BKN035
      TEMPO 1719/1722 3/4SM -SN BKN015
     FM172300 25010G17KT P6SM SCT045 BKN090
     FM180300 27009G15KT P6SM SKC
     FM180800 24004KT P6SM SKC
     FM181300 16006KT P6SM BKN250
     FM181700 16013G23KT P6SM BKN100=

USA.gov is the U.S. government's official web portal to all federal, state and local government web resources and services.